sensor_id;sensor_type;location;lat;lon;timestamp;P1;durP1;ratioP1;P2;durP2;ratioP2
10122;SDS011;5101;49.038;8.710;2023-06-22T00:01:49;4.00;;;3.70;;
10122;SDS011;5101;49.038;8.710;2023-06-22T00:04:15;3.78;;;3.45;;
10122;SDS011;5101;49.038;8.710;2023-06-22T00:06:40;5.15;;;3.60;;
10122;SDS011;5101;49.038;8.710;2023-06-22T00:09:06;4.20;;;3.80;;
10122;SDS011;5101;49.038;8.710;2023-06-22T00:11:32;4.70;;;3.40;;
10122;SDS011;5101;49.038;8.710;2023-06-22T00:13:58;3.88;;;3.58;;
10122;SDS011;5101;49.038;8.710;2023-06-22T00:16:24;6.22;;;3.65;;
10122;SDS011;5101;49.038;8.710;2023-06-22T00:18:50;4.75;;;4.03;;
10122;SDS011;5101;49.038;8.710;2023-06-22T00:21:15;4.93;;;4.30;;
10122;SDS011;5101;49.038;8.710;2023-06-22T00:23:41;4.97;;;3.80;;
10122;SDS011;5101;49.038;8.710;2023-06-22T00:26:06;6.28;;;3.80;;
10122;SDS011;5101;49.038;8.710;2023-06-22T00:28:33;3.88;;;3.47;;
10122;SDS011;5101;49.038;8.710;2023-06-22T00:30:59;4.35;;;3.92;;
10122;SDS011;5101;49.038;8.710;2023-06-22T00:33:25;4.32;;;3.97;;
10122;SDS011;5101;49.038;8.710;2023-06-22T00:35:51;4.18;;;3.80;;
10122;SDS011;5101;49.038;8.710;2023-06-22T00:38:18;6.20;;;4.57;;
10122;SDS011;5101;49.038;8.710;2023-06-22T00:40:44;5.32;;;4.82;;
10122;SDS011;5101;49.038;8.710;2023-06-22T00:43:09;5.28;;;4.53;;
10122;SDS011;5101;49.038;8.710;2023-06-22T00:45:35;8.23;;;5.22;;
10122;SDS011;5101;49.038;8.710;2023-06-22T00:48:01;5.13;;;4.45;;
10122;SDS011;5101;49.038;8.710;2023-06-22T00:50:29;5.60;;;5.10;;
10122;SDS011;5101;49.038;8.710;2023-06-22T00:52:58;9.82;;;5.55;;
10122;SDS011;5101;49.038;8.710;2023-06-22T00:55:25;10.63;;;5.97;;
10122;SDS011;5101;49.038;8.710;2023-06-22T00:57:51;7.03;;;5.00;;
10122;SDS011;5101;49.038;8.710;2023-06-22T01:00:21;8.23;;;5.45;;
10122;SDS011;5101;49.038;8.710;2023-06-22T01:02:49;8.02;;;5.70;;
10122;SDS011;5101;49.038;8.710;2023-06-22T01:05:19;8.15;;;5.13;;
10122;SDS011;5101;49.038;8.710;2023-06-22T01:13:30;5.53;;;4.82;;
10122;SDS011;5101;49.038;8.710;2023-06-22T01:16:07;5.75;;;5.05;;
10122;SDS011;5101;49.038;8.710;2023-06-22T01:18:40;6.82;;;5.30;;
10122;SDS011;5101;49.038;8.710;2023-06-22T01:21:07;8.75;;;5.47;;
10122;SDS011;5101;49.038;8.710;2023-06-22T01:23:56;5.25;;;4.80;;
10122;SDS011;5101;49.038;8.710;2023-06-22T01:26:42;8.57;;;5.40;;
10122;SDS011;5101;49.038;8.710;2023-06-22T01:29:18;5.68;;;5.18;;
10122;SDS011;5101;49.038;8.710;2023-06-22T01:31:46;9.43;;;5.57;;
10122;SDS011;5101;49.038;8.710;2023-06-22T01:34:14;5.97;;;5.05;;
10122;SDS011;5101;49.038;8.710;2023-06-22T01:36:41;6.90;;;5.80;;
10122;SDS011;5101;49.038;8.710;2023-06-22T01:39:07;6.05;;;5.55;;
10122;SDS011;5101;49.038;8.710;2023-06-22T01:41:35;6.20;;;5.60;;
10122;SDS011;5101;49.038;8.710;2023-06-22T01:44:02;6.95;;;6.05;;
10122;SDS011;5101;49.038;8.710;2023-06-22T01:46:32;6.00;;;5.45;;
10122;SDS011;5101;49.038;8.710;2023-06-22T01:48:59;10.38;;;6.38;;
10122;SDS011;5101;49.038;8.710;2023-06-22T01:51:26;8.43;;;5.80;;
10122;SDS011;5101;49.038;8.710;2023-06-22T01:53:51;6.57;;;5.97;;
10122;SDS011;5101;49.038;8.710;2023-06-22T01:56:17;6.10;;;5.50;;
10122;SDS011;5101;49.038;8.710;2023-06-22T01:58:48;6.57;;;5.97;;
10122;SDS011;5101;49.038;8.710;2023-06-22T02:01:20;8.52;;;5.90;;
10122;SDS011;5101;49.038;8.710;2023-06-22T02:06:37;7.07;;;6.38;;
10122;SDS011;5101;49.038;8.710;2023-06-22T02:09:11;7.68;;;6.28;;
10122;SDS011;5101;49.038;8.710;2023-06-22T02:11:40;6.57;;;6.03;;
10122;SDS011;5101;49.038;8.710;2023-06-22T02:14:08;6.97;;;6.28;;
10122;SDS011;5101;49.038;8.710;2023-06-22T02:16:35;7.60;;;5.78;;
10122;SDS011;5101;49.038;8.710;2023-06-22T02:19:01;8.27;;;6.53;;
10122;SDS011;5101;49.038;8.710;2023-06-22T02:21:31;7.13;;;6.22;;
10122;SDS011;5101;49.038;8.710;2023-06-22T02:23:57;7.25;;;6.55;;
10122;SDS011;5101;49.038;8.710;2023-06-22T02:26:23;7.82;;;7.00;;
10122;SDS011;5101;49.038;8.710;2023-06-22T02:28:50;7.63;;;6.90;;
10122;SDS011;5101;49.038;8.710;2023-06-22T02:31:16;6.68;;;6.07;;
10122;SDS011;5101;49.038;8.710;2023-06-22T02:33:42;10.68;;;6.20;;
10122;SDS011;5101;49.038;8.710;2023-06-22T02:36:08;7.22;;;6.60;;
10122;SDS011;5101;49.038;8.710;2023-06-22T02:38:37;9.07;;;5.85;;
10122;SDS011;5101;49.038;8.710;2023-06-22T02:41:02;8.45;;;6.93;;
10122;SDS011;5101;49.038;8.710;2023-06-22T02:43:28;8.40;;;6.80;;
10122;SDS011;5101;49.038;8.710;2023-06-22T02:45:54;8.35;;;6.85;;
10122;SDS011;5101;49.038;8.710;2023-06-22T02:48:20;7.13;;;6.07;;
10122;SDS011;5101;49.038;8.710;2023-06-22T02:50:45;7.53;;;6.78;;
10122;SDS011;5101;49.038;8.710;2023-06-22T02:53:11;6.95;;;6.25;;
10122;SDS011;5101;49.038;8.710;2023-06-22T02:55:36;7.13;;;6.47;;
10122;SDS011;5101;49.038;8.710;2023-06-22T02:58:04;7.72;;;6.72;;
10122;SDS011;5101;49.038;8.710;2023-06-22T03:00:30;7.57;;;6.88;;
10122;SDS011;5101;49.038;8.710;2023-06-22T03:02:56;8.93;;;6.95;;
10122;SDS011;5101;49.038;8.710;2023-06-22T03:05:22;9.27;;;7.38;;
10122;SDS011;5101;49.038;8.710;2023-06-22T03:07:48;7.78;;;6.70;;
10122;SDS011;5101;49.038;8.710;2023-06-22T03:10:14;7.70;;;6.95;;
10122;SDS011;5101;49.038;8.710;2023-06-22T03:12:40;9.00;;;7.20;;
10122;SDS011;5101;49.038;8.710;2023-06-22T03:15:08;7.43;;;6.70;;
10122;SDS011;5101;49.038;8.710;2023-06-22T03:17:35;7.63;;;6.82;;
10122;SDS011;5101;49.038;8.710;2023-06-22T03:20:01;7.43;;;6.72;;
10122;SDS011;5101;49.038;8.710;2023-06-22T03:22:35;6.80;;;6.18;;
10122;SDS011;5101;49.038;8.710;2023-06-22T03:25:01;8.75;;;7.40;;
10122;SDS011;5101;49.038;8.710;2023-06-22T03:27:27;7.30;;;6.70;;
10122;SDS011;5101;49.038;8.710;2023-06-22T03:29:53;7.32;;;6.72;;
10122;SDS011;5101;49.038;8.710;2023-06-22T03:32:18;7.78;;;6.95;;
10122;SDS011;5101;49.038;8.710;2023-06-22T03:34:44;8.77;;;6.93;;
10122;SDS011;5101;49.038;8.710;2023-06-22T03:37:12;9.75;;;7.28;;
10122;SDS011;5101;49.038;8.710;2023-06-22T03:39:39;8.15;;;7.10;;
10122;SDS011;5101;49.038;8.710;2023-06-22T03:42:04;9.20;;;7.00;;
10122;SDS011;5101;49.038;8.710;2023-06-22T03:44:30;8.25;;;6.93;;
10122;SDS011;5101;49.038;8.710;2023-06-22T03:46:56;10.23;;;7.75;;
10122;SDS011;5101;49.038;8.710;2023-06-22T03:49:21;9.85;;;7.35;;
10122;SDS011;5101;49.038;8.710;2023-06-22T03:51:47;10.90;;;7.13;;
10122;SDS011;5101;49.038;8.710;2023-06-22T03:54:12;7.85;;;7.15;;
10122;SDS011;5101;49.038;8.710;2023-06-22T03:56:38;7.15;;;6.55;;
10122;SDS011;5101;49.038;8.710;2023-06-22T03:59:03;9.43;;;7.28;;
10122;SDS011;5101;49.038;8.710;2023-06-22T04:01:29;9.18;;;6.95;;
10122;SDS011;5101;49.038;8.710;2023-06-22T04:03:54;8.68;;;7.22;;
10122;SDS011;5101;49.038;8.710;2023-06-22T04:06:20;10.00;;;7.55;;
10122;SDS011;5101;49.038;8.710;2023-06-22T04:08:47;9.63;;;7.38;;
10122;SDS011;5101;49.038;8.710;2023-06-22T04:11:16;8.48;;;7.30;;
10122;SDS011;5101;49.038;8.710;2023-06-22T04:13:43;8.70;;;7.80;;
10122;SDS011;5101;49.038;8.710;2023-06-22T04:16:08;8.45;;;7.65;;
10122;SDS011;5101;49.038;8.710;2023-06-22T04:18:34;9.10;;;7.13;;
10122;SDS011;5101;49.038;8.710;2023-06-22T04:20:59;9.55;;;7.05;;
10122;SDS011;5101;49.038;8.710;2023-06-22T04:23:25;7.85;;;7.00;;
10122;SDS011;5101;49.038;8.710;2023-06-22T04:25:51;7.90;;;7.18;;
10122;SDS011;5101;49.038;8.710;2023-06-22T04:28:16;11.40;;;7.65;;
10122;SDS011;5101;49.038;8.710;2023-06-22T04:30:42;8.80;;;8.00;;
10122;SDS011;5101;49.038;8.710;2023-06-22T04:33:14;8.68;;;7.75;;
10122;SDS011;5101;49.038;8.710;2023-06-22T04:35:41;18.73;;;7.70;;
10122;SDS011;5101;49.038;8.710;2023-06-22T04:38:07;8.55;;;7.70;;
10122;SDS011;5101;49.038;8.710;2023-06-22T04:40:33;10.68;;;7.85;;
10122;SDS011;5101;49.038;8.710;2023-06-22T04:42:58;7.80;;;7.00;;
10122;SDS011;5101;49.038;8.710;2023-06-22T04:45:27;10.35;;;7.45;;
10122;SDS011;5101;49.038;8.710;2023-06-22T04:47:54;10.35;;;7.68;;
10122;SDS011;5101;49.038;8.710;2023-06-22T04:50:19;9.30;;;7.07;;
10122;SDS011;5101;49.038;8.710;2023-06-22T04:52:46;8.45;;;7.55;;
10122;SDS011;5101;49.038;8.710;2023-06-22T04:55:12;11.10;;;8.10;;
10122;SDS011;5101;49.038;8.710;2023-06-22T04:57:38;13.40;;;7.50;;
10122;SDS011;5101;49.038;8.710;2023-06-22T05:00:04;10.82;;;7.25;;
10122;SDS011;5101;49.038;8.710;2023-06-22T05:02:40;8.02;;;7.32;;
10122;SDS011;5101;49.038;8.710;2023-06-22T05:05:05;17.58;;;8.13;;
10122;SDS011;5101;49.038;8.710;2023-06-22T05:07:34;9.60;;;7.97;;
10122;SDS011;5101;49.038;8.710;2023-06-22T05:10:04;10.27;;;8.02;;
10122;SDS011;5101;49.038;8.710;2023-06-22T05:12:30;8.38;;;7.57;;
10122;SDS011;5101;49.038;8.710;2023-06-22T05:14:56;10.57;;;7.40;;
10122;SDS011;5101;49.038;8.710;2023-06-22T05:17:22;7.15;;;5.70;;
10122;SDS011;5101;49.038;8.710;2023-06-22T05:19:47;7.82;;;7.13;;
10122;SDS011;5101;49.038;8.710;2023-06-22T05:22:16;8.50;;;7.18;;
10122;SDS011;5101;49.038;8.710;2023-06-22T05:24:42;8.32;;;6.78;;
10122;SDS011;5101;49.038;8.710;2023-06-22T05:27:08;10.30;;;8.07;;
10122;SDS011;5101;49.038;8.710;2023-06-22T05:29:34;11.93;;;8.02;;
10122;SDS011;5101;49.038;8.710;2023-06-22T05:32:01;10.57;;;7.85;;
10122;SDS011;5101;49.038;8.710;2023-06-22T05:34:26;9.57;;;7.55;;
10122;SDS011;5101;49.038;8.710;2023-06-22T05:36:52;10.32;;;6.82;;
10122;SDS011;5101;49.038;8.710;2023-06-22T05:39:17;14.38;;;7.78;;
10122;SDS011;5101;49.038;8.710;2023-06-22T05:41:44;9.63;;;7.20;;
10122;SDS011;5101;49.038;8.710;2023-06-22T05:44:10;8.05;;;6.30;;
10122;SDS011;5101;49.038;8.710;2023-06-22T05:46:35;10.23;;;7.00;;
10122;SDS011;5101;49.038;8.710;2023-06-22T05:49:01;7.78;;;6.45;;
10122;SDS011;5101;49.038;8.710;2023-06-22T05:51:26;10.75;;;6.82;;
10122;SDS011;5101;49.038;8.710;2023-06-22T05:53:52;7.63;;;6.13;;
10122;SDS011;5101;49.038;8.710;2023-06-22T05:56:17;9.02;;;6.43;;
10122;SDS011;5101;49.038;8.710;2023-06-22T05:58:43;10.00;;;6.68;;
10122;SDS011;5101;49.038;8.710;2023-06-22T06:01:09;8.10;;;6.38;;
10122;SDS011;5101;49.038;8.710;2023-06-22T06:03:34;6.28;;;5.65;;
10122;SDS011;5101;49.038;8.710;2023-06-22T06:06:05;6.72;;;5.80;;
10122;SDS011;5101;49.038;8.710;2023-06-22T06:08:32;9.55;;;5.97;;
10122;SDS011;5101;49.038;8.710;2023-06-22T06:10:57;7.70;;;6.20;;
10122;SDS011;5101;49.038;8.710;2023-06-22T06:13:23;9.27;;;6.30;;
10122;SDS011;5101;49.038;8.710;2023-06-22T06:15:48;6.68;;;6.03;;
10122;SDS011;5101;49.038;8.710;2023-06-22T06:18:16;8.73;;;6.50;;
10122;SDS011;5101;49.038;8.710;2023-06-22T06:20:42;8.18;;;6.10;;
10122;SDS011;5101;49.038;8.710;2023-06-22T06:23:07;7.47;;;5.90;;
10122;SDS011;5101;49.038;8.710;2023-06-22T06:25:33;7.65;;;6.35;;
10122;SDS011;5101;49.038;8.710;2023-06-22T06:27:58;7.72;;;5.47;;
10122;SDS011;5101;49.038;8.710;2023-06-22T06:30:24;7.55;;;5.72;;
10122;SDS011;5101;49.038;8.710;2023-06-22T06:32:49;6.95;;;5.78;;
10122;SDS011;5101;49.038;8.710;2023-06-22T06:35:15;6.38;;;5.03;;
10122;SDS011;5101;49.038;8.710;2023-06-22T06:37:42;5.72;;;5.07;;
10122;SDS011;5101;49.038;8.710;2023-06-22T06:40:10;5.20;;;4.72;;
10122;SDS011;5101;49.038;8.710;2023-06-22T06:42:40;7.18;;;5.03;;
10122;SDS011;5101;49.038;8.710;2023-06-22T06:45:09;5.47;;;4.32;;
10122;SDS011;5101;49.038;8.710;2023-06-22T06:47:40;6.07;;;4.60;;
10122;SDS011;5101;49.038;8.710;2023-06-22T06:50:06;4.82;;;4.20;;
10122;SDS011;5101;49.038;8.710;2023-06-22T06:52:32;6.25;;;4.18;;
10122;SDS011;5101;49.038;8.710;2023-06-22T06:54:58;4.40;;;4.00;;
10122;SDS011;5101;49.038;8.710;2023-06-22T06:57:24;4.57;;;3.88;;
10122;SDS011;5101;49.038;8.710;2023-06-22T06:59:53;4.50;;;3.85;;
10122;SDS011;5101;49.038;8.710;2023-06-22T07:02:20;6.07;;;4.18;;
10122;SDS011;5101;49.038;8.710;2023-06-22T07:04:46;5.15;;;4.40;;
10122;SDS011;5101;49.038;8.710;2023-06-22T07:07:11;4.47;;;4.07;;
10122;SDS011;5101;49.038;8.710;2023-06-22T07:09:37;4.40;;;4.00;;
10122;SDS011;5101;49.038;8.710;2023-06-22T07:12:03;4.53;;;3.80;;
10122;SDS011;5101;49.038;8.710;2023-06-22T07:14:28;4.53;;;4.00;;
10122;SDS011;5101;49.038;8.710;2023-06-22T07:16:54;4.63;;;3.50;;
10122;SDS011;5101;49.038;8.710;2023-06-22T07:19:26;3.83;;;3.53;;
10122;SDS011;5101;49.038;8.710;2023-06-22T07:21:53;5.65;;;3.83;;
10122;SDS011;5101;49.038;8.710;2023-06-22T07:24:19;5.97;;;3.90;;
10122;SDS011;5101;49.038;8.710;2023-06-22T07:26:48;7.72;;;3.30;;
10122;SDS011;5101;49.038;8.710;2023-06-22T07:29:15;4.75;;;4.22;;
10122;SDS011;5101;49.038;8.710;2023-06-22T07:31:45;5.05;;;3.28;;
10122;SDS011;5101;49.038;8.710;2023-06-22T07:34:11;4.43;;;3.85;;
10122;SDS011;5101;49.038;8.710;2023-06-22T07:36:38;5.38;;;4.20;;
10122;SDS011;5101;49.038;8.710;2023-06-22T07:39:03;4.90;;;3.47;;
10122;SDS011;5101;49.038;8.710;2023-06-22T07:41:29;3.72;;;3.35;;
10122;SDS011;5101;49.038;8.710;2023-06-22T07:43:55;4.20;;;3.53;;
10122;SDS011;5101;49.038;8.710;2023-06-22T07:46:20;6.13;;;3.67;;
10122;SDS011;5101;49.038;8.710;2023-06-22T07:48:46;3.80;;;3.40;;
10122;SDS011;5101;49.038;8.710;2023-06-22T07:51:12;3.97;;;3.50;;
10122;SDS011;5101;49.038;8.710;2023-06-22T07:53:38;4.28;;;3.17;;
10122;SDS011;5101;49.038;8.710;2023-06-22T07:56:05;5.03;;;3.47;;
10122;SDS011;5101;49.038;8.710;2023-06-22T07:58:32;3.58;;;3.28;;
10122;SDS011;5101;49.038;8.710;2023-06-22T08:00:58;6.50;;;3.78;;
10122;SDS011;5101;49.038;8.710;2023-06-22T08:03:23;4.93;;;3.28;;
10122;SDS011;5101;49.038;8.710;2023-06-22T08:05:49;4.78;;;3.47;;
10122;SDS011;5101;49.038;8.710;2023-06-22T08:08:15;3.33;;;2.88;;
10122;SDS011;5101;49.038;8.710;2023-06-22T08:10:41;5.57;;;3.28;;
10122;SDS011;5101;49.038;8.710;2023-06-22T08:13:07;3.35;;;3.00;;
10122;SDS011;5101;49.038;8.710;2023-06-22T08:15:33;5.70;;;3.35;;
10122;SDS011;5101;49.038;8.710;2023-06-22T08:17:58;5.43;;;3.65;;
10122;SDS011;5101;49.038;8.710;2023-06-22T08:20:25;5.57;;;3.22;;
10122;SDS011;5101;49.038;8.710;2023-06-22T08:22:53;4.85;;;3.20;;
10122;SDS011;5101;49.038;8.710;2023-06-22T08:25:20;5.20;;;3.30;;
10122;SDS011;5101;49.038;8.710;2023-06-22T08:27:46;4.65;;;3.35;;
10122;SDS011;5101;49.038;8.710;2023-06-22T08:30:13;5.65;;;3.67;;
10122;SDS011;5101;49.038;8.710;2023-06-22T08:32:39;4.13;;;3.50;;
10122;SDS011;5101;49.038;8.710;2023-06-22T08:35:05;6.93;;;3.85;;
10122;SDS011;5101;49.038;8.710;2023-06-22T08:37:33;4.35;;;3.58;;
10122;SDS011;5101;49.038;8.710;2023-06-22T08:40:00;4.63;;;3.28;;
10122;SDS011;5101;49.038;8.710;2023-06-22T08:42:30;3.90;;;3.50;;
10122;SDS011;5101;49.038;8.710;2023-06-22T08:44:56;5.70;;;3.78;;
10122;SDS011;5101;49.038;8.710;2023-06-22T08:47:21;6.80;;;4.20;;
10122;SDS011;5101;49.038;8.710;2023-06-22T08:49:47;5.78;;;4.10;;
10122;SDS011;5101;49.038;8.710;2023-06-22T08:52:13;5.90;;;4.45;;
10122;SDS011;5101;49.038;8.710;2023-06-22T08:54:39;5.43;;;4.53;;
10122;SDS011;5101;49.038;8.710;2023-06-22T08:57:05;4.90;;;3.80;;
10122;SDS011;5101;49.038;8.710;2023-06-22T08:59:31;6.25;;;4.20;;
10122;SDS011;5101;49.038;8.710;2023-06-22T09:01:56;8.88;;;4.40;;
10122;SDS011;5101;49.038;8.710;2023-06-22T09:04:22;5.28;;;3.97;;
10122;SDS011;5101;49.038;8.710;2023-06-22T09:06:48;7.80;;;4.20;;
10122;SDS011;5101;49.038;8.710;2023-06-22T09:09:15;8.63;;;4.45;;
10122;SDS011;5101;49.038;8.710;2023-06-22T09:11:41;4.82;;;3.85;;
10122;SDS011;5101;49.038;8.710;2023-06-22T09:14:07;6.53;;;4.55;;
10122;SDS011;5101;49.038;8.710;2023-06-22T09:16:33;3.95;;;3.60;;
10122;SDS011;5101;49.038;8.710;2023-06-22T09:18:59;5.13;;;4.00;;
10122;SDS011;5101;49.038;8.710;2023-06-22T09:21:24;4.47;;;4.05;;
10122;SDS011;5101;49.038;8.710;2023-06-22T09:23:50;7.35;;;4.45;;
10122;SDS011;5101;49.038;8.710;2023-06-22T09:26:19;5.50;;;3.67;;
10122;SDS011;5101;49.038;8.710;2023-06-22T09:28:45;6.63;;;3.85;;
10122;SDS011;5101;49.038;8.710;2023-06-22T09:31:12;5.00;;;4.18;;
10122;SDS011;5101;49.038;8.710;2023-06-22T09:33:39;6.32;;;3.97;;
10122;SDS011;5101;49.038;8.710;2023-06-22T09:36:05;6.97;;;4.43;;
10122;SDS011;5101;49.038;8.710;2023-06-22T09:38:34;7.03;;;4.00;;
10122;SDS011;5101;49.038;8.710;2023-06-22T09:41:00;6.30;;;4.00;;
10122;SDS011;5101;49.038;8.710;2023-06-22T09:43:25;5.75;;;4.82;;
10122;SDS011;5101;49.038;8.710;2023-06-22T09:45:52;4.75;;;4.20;;
10122;SDS011;5101;49.038;8.710;2023-06-22T09:48:17;5.30;;;4.07;;
10122;SDS011;5101;49.038;8.710;2023-06-22T09:50:43;7.47;;;3.95;;
10122;SDS011;5101;49.038;8.710;2023-06-22T09:53:08;5.55;;;4.40;;
10122;SDS011;5101;49.038;8.710;2023-06-22T09:55:34;5.10;;;4.00;;
10122;SDS011;5101;49.038;8.710;2023-06-22T09:58:00;7.35;;;3.95;;
10122;SDS011;5101;49.038;8.710;2023-06-22T10:00:25;4.25;;;3.45;;
10122;SDS011;5101;49.038;8.710;2023-06-22T10:02:51;6.20;;;4.38;;
10122;SDS011;5101;49.038;8.710;2023-06-22T10:05:17;5.03;;;4.15;;
10122;SDS011;5101;49.038;8.710;2023-06-22T10:07:43;5.70;;;4.22;;
10122;SDS011;5101;49.038;8.710;2023-06-22T10:10:09;7.32;;;4.07;;
10122;SDS011;5101;49.038;8.710;2023-06-22T10:12:35;4.93;;;4.07;;
10122;SDS011;5101;49.038;8.710;2023-06-22T10:15:01;6.68;;;4.47;;
10122;SDS011;5101;49.038;8.710;2023-06-22T10:17:27;7.38;;;4.18;;
10122;SDS011;5101;49.038;8.710;2023-06-22T10:19:53;7.07;;;3.97;;
10122;SDS011;5101;49.038;8.710;2023-06-22T10:22:18;5.20;;;3.97;;
10122;SDS011;5101;49.038;8.710;2023-06-22T10:24:44;6.20;;;4.60;;
10122;SDS011;5101;49.038;8.710;2023-06-22T10:27:10;5.47;;;4.05;;
10122;SDS011;5101;49.038;8.710;2023-06-22T10:29:37;6.63;;;4.68;;
10122;SDS011;5101;49.038;8.710;2023-06-22T10:32:02;6.28;;;4.30;;
10122;SDS011;5101;49.038;8.710;2023-06-22T10:34:28;6.72;;;4.50;;
10122;SDS011;5101;49.038;8.710;2023-06-22T10:36:54;8.75;;;3.80;;
10122;SDS011;5101;49.038;8.710;2023-06-22T10:39:19;4.07;;;3.65;;
10122;SDS011;5101;49.038;8.710;2023-06-22T10:41:45;6.72;;;4.45;;
10122;SDS011;5101;49.038;8.710;2023-06-22T10:44:10;5.35;;;3.80;;
10122;SDS011;5101;49.038;8.710;2023-06-22T10:46:37;5.20;;;4.55;;
10122;SDS011;5101;49.038;8.710;2023-06-22T10:49:02;6.65;;;4.63;;
10122;SDS011;5101;49.038;8.710;2023-06-22T10:51:28;6.95;;;4.63;;
10122;SDS011;5101;49.038;8.710;2023-06-22T10:53:54;5.68;;;4.15;;
10122;SDS011;5101;49.038;8.710;2023-06-22T10:56:19;5.47;;;4.07;;
10122;SDS011;5101;49.038;8.710;2023-06-22T10:58:45;6.85;;;4.55;;
10122;SDS011;5101;49.038;8.710;2023-06-22T11:01:11;8.00;;;4.47;;
10122;SDS011;5101;49.038;8.710;2023-06-22T11:03:36;5.93;;;4.28;;
10122;SDS011;5101;49.038;8.710;2023-06-22T11:06:02;6.97;;;4.40;;
10122;SDS011;5101;49.038;8.710;2023-06-22T11:08:27;6.70;;;4.43;;
10122;SDS011;5101;49.038;8.710;2023-06-22T11:10:53;4.80;;;3.65;;
10122;SDS011;5101;49.038;8.710;2023-06-22T11:13:18;6.22;;;4.03;;
10122;SDS011;5101;49.038;8.710;2023-06-22T11:15:44;6.15;;;4.20;;
10122;SDS011;5101;49.038;8.710;2023-06-22T11:18:09;6.88;;;4.25;;
10122;SDS011;5101;49.038;8.710;2023-06-22T11:20:35;6.68;;;4.35;;
10122;SDS011;5101;49.038;8.710;2023-06-22T11:23:04;6.10;;;4.65;;
10122;SDS011;5101;49.038;8.710;2023-06-22T11:25:31;5.57;;;4.25;;
10122;SDS011;5101;49.038;8.710;2023-06-22T11:27:56;6.95;;;3.72;;
10122;SDS011;5101;49.038;8.710;2023-06-22T11:30:22;5.90;;;4.05;;
10122;SDS011;5101;49.038;8.710;2023-06-22T11:32:48;5.70;;;4.20;;
10122;SDS011;5101;49.038;8.710;2023-06-22T11:35:13;6.53;;;3.90;;
10122;SDS011;5101;49.038;8.710;2023-06-22T11:37:39;7.57;;;4.47;;
10122;SDS011;5101;49.038;8.710;2023-06-22T11:40:04;7.47;;;4.10;;
10122;SDS011;5101;49.038;8.710;2023-06-22T11:42:33;9.68;;;4.68;;
10122;SDS011;5101;49.038;8.710;2023-06-22T11:44:59;6.20;;;4.35;;
10122;SDS011;5101;49.038;8.710;2023-06-22T11:47:25;5.40;;;4.38;;
10122;SDS011;5101;49.038;8.710;2023-06-22T11:49:50;8.70;;;4.50;;
10122;SDS011;5101;49.038;8.710;2023-06-22T11:52:16;5.75;;;4.35;;
10122;SDS011;5101;49.038;8.710;2023-06-22T11:54:42;6.65;;;4.40;;
10122;SDS011;5101;49.038;8.710;2023-06-22T11:57:08;7.05;;;4.88;;
10122;SDS011;5101;49.038;8.710;2023-06-22T11:59:34;8.02;;;4.88;;
10122;SDS011;5101;49.038;8.710;2023-06-22T12:01:59;6.60;;;4.35;;
10122;SDS011;5101;49.038;8.710;2023-06-22T12:04:25;5.47;;;4.03;;
10122;SDS011;5101;49.038;8.710;2023-06-22T12:06:50;8.98;;;4.72;;
10122;SDS011;5101;49.038;8.710;2023-06-22T12:09:16;5.60;;;4.47;;
10122;SDS011;5101;49.038;8.710;2023-06-22T12:11:41;5.15;;;3.95;;
10122;SDS011;5101;49.038;8.710;2023-06-22T12:14:07;6.13;;;4.25;;
10122;SDS011;5101;49.038;8.710;2023-06-22T12:16:32;7.82;;;4.30;;
10122;SDS011;5101;49.038;8.710;2023-06-22T12:18:58;5.40;;;4.50;;
10122;SDS011;5101;49.038;8.710;2023-06-22T12:21:23;7.30;;;3.78;;
10122;SDS011;5101;49.038;8.710;2023-06-22T12:23:49;4.93;;;4.38;;
10122;SDS011;5101;49.038;8.710;2023-06-22T12:26:14;5.03;;;4.40;;
10122;SDS011;5101;49.038;8.710;2023-06-22T12:28:40;9.25;;;4.53;;
10122;SDS011;5101;49.038;8.710;2023-06-22T12:31:06;5.57;;;4.15;;
10122;SDS011;5101;49.038;8.710;2023-06-22T12:33:31;8.85;;;4.28;;
10122;SDS011;5101;49.038;8.710;2023-06-22T12:35:57;6.28;;;4.47;;
10122;SDS011;5101;49.038;8.710;2023-06-22T12:38:22;5.53;;;4.68;;
10122;SDS011;5101;49.038;8.710;2023-06-22T12:40:50;8.10;;;4.53;;
10122;SDS011;5101;49.038;8.710;2023-06-22T12:43:16;9.93;;;4.57;;
10122;SDS011;5101;49.038;8.710;2023-06-22T12:45:41;10.93;;;5.10;;
10122;SDS011;5101;49.038;8.710;2023-06-22T12:48:07;6.80;;;4.35;;
10122;SDS011;5101;49.038;8.710;2023-06-22T12:50:33;10.90;;;5.07;;
10122;SDS011;5101;49.038;8.710;2023-06-22T12:52:59;8.13;;;4.93;;
10122;SDS011;5101;49.038;8.710;2023-06-22T12:55:25;6.20;;;4.40;;
10122;SDS011;5101;49.038;8.710;2023-06-22T12:57:50;7.93;;;4.40;;
10122;SDS011;5101;49.038;8.710;2023-06-22T13:00:16;7.95;;;4.88;;
10122;SDS011;5101;49.038;8.710;2023-06-22T13:02:42;7.55;;;4.35;;
10122;SDS011;5101;49.038;8.710;2023-06-22T13:05:07;5.03;;;4.50;;
10122;SDS011;5101;49.038;8.710;2023-06-22T13:07:33;7.88;;;4.97;;
10122;SDS011;5101;49.038;8.710;2023-06-22T13:09:59;9.25;;;4.63;;
10122;SDS011;5101;49.038;8.710;2023-06-22T13:12:25;9.95;;;4.95;;
10122;SDS011;5101;49.038;8.710;2023-06-22T13:14:50;8.18;;;4.40;;
10122;SDS011;5101;49.038;8.710;2023-06-22T13:17:16;7.47;;;4.90;;
10122;SDS011;5101;49.038;8.710;2023-06-22T13:19:41;5.75;;;4.55;;
10122;SDS011;5101;49.038;8.710;2023-06-22T13:24:55;10.52;;;4.72;;
10122;SDS011;5101;49.038;8.710;2023-06-22T13:27:22;5.35;;;4.78;;
10122;SDS011;5101;49.038;8.710;2023-06-22T13:29:47;8.45;;;4.68;;
10122;SDS011;5101;49.038;8.710;2023-06-22T13:32:13;8.98;;;4.75;;
10122;SDS011;5101;49.038;8.710;2023-06-22T13:34:39;8.80;;;4.72;;
10122;SDS011;5101;49.038;8.710;2023-06-22T13:37:04;9.32;;;4.88;;
10122;SDS011;5101;49.038;8.710;2023-06-22T13:39:30;9.63;;;4.82;;
10122;SDS011;5101;49.038;8.710;2023-06-22T13:41:56;5.82;;;4.68;;
10122;SDS011;5101;49.038;8.710;2023-06-22T13:44:22;6.90;;;4.43;;
10122;SDS011;5101;49.038;8.710;2023-06-22T13:46:48;7.40;;;4.43;;
10122;SDS011;5101;49.038;8.710;2023-06-22T13:49:13;7.15;;;5.22;;
10122;SDS011;5101;49.038;8.710;2023-06-22T13:51:39;10.23;;;4.63;;
10122;SDS011;5101;49.038;8.710;2023-06-22T13:54:04;6.53;;;4.70;;
10122;SDS011;5101;49.038;8.710;2023-06-22T13:56:30;8.23;;;4.85;;
10122;SDS011;5101;49.038;8.710;2023-06-22T13:58:55;6.90;;;4.50;;
10122;SDS011;5101;49.038;8.710;2023-06-22T14:01:21;10.52;;;4.80;;
10122;SDS011;5101;49.038;8.710;2023-06-22T14:03:47;9.55;;;5.22;;
10122;SDS011;5101;49.038;8.710;2023-06-22T14:06:13;8.38;;;4.80;;
10122;SDS011;5101;49.038;8.710;2023-06-22T14:08:38;7.22;;;4.40;;
10122;SDS011;5101;49.038;8.710;2023-06-22T14:11:04;7.45;;;4.78;;
10122;SDS011;5101;49.038;8.710;2023-06-22T14:13:29;7.72;;;4.55;;
10122;SDS011;5101;49.038;8.710;2023-06-22T14:15:55;10.27;;;5.45;;
10122;SDS011;5101;49.038;8.710;2023-06-22T14:18:20;6.68;;;4.93;;
10122;SDS011;5101;49.038;8.710;2023-06-22T14:20:47;7.68;;;4.82;;
10122;SDS011;5101;49.038;8.710;2023-06-22T14:23:13;7.88;;;4.85;;
10122;SDS011;5101;49.038;8.710;2023-06-22T14:25:39;6.57;;;5.25;;
10122;SDS011;5101;49.038;8.710;2023-06-22T14:28:05;7.22;;;4.53;;
10122;SDS011;5101;49.038;8.710;2023-06-22T14:30:31;7.25;;;4.50;;
10122;SDS011;5101;49.038;8.710;2023-06-22T14:32:56;7.93;;;4.57;;
10122;SDS011;5101;49.038;8.710;2023-06-22T14:35:22;9.00;;;5.22;;
10122;SDS011;5101;49.038;8.710;2023-06-22T14:37:49;6.35;;;4.90;;
10122;SDS011;5101;49.038;8.710;2023-06-22T14:40:15;8.50;;;5.20;;
10122;SDS011;5101;49.038;8.710;2023-06-22T14:42:40;10.85;;;4.78;;
10122;SDS011;5101;49.038;8.710;2023-06-22T14:45:06;8.57;;;5.18;;
10122;SDS011;5101;49.038;8.710;2023-06-22T14:47:32;6.78;;;5.47;;
10122;SDS011;5101;49.038;8.710;2023-06-22T14:49:57;11.52;;;5.50;;
10122;SDS011;5101;49.038;8.710;2023-06-22T14:52:25;7.93;;;5.18;;
10122;SDS011;5101;49.038;8.710;2023-06-22T14:54:51;7.75;;;4.82;;
10122;SDS011;5101;49.038;8.710;2023-06-22T14:57:17;6.50;;;5.28;;
10122;SDS011;5101;49.038;8.710;2023-06-22T14:59:45;8.32;;;4.60;;
10122;SDS011;5101;49.038;8.710;2023-06-22T15:02:16;10.02;;;5.00;;
10122;SDS011;5101;49.038;8.710;2023-06-22T15:04:42;9.18;;;5.18;;
10122;SDS011;5101;49.038;8.710;2023-06-22T15:07:08;11.30;;;5.43;;